Airfield :
LOGIN :

Register | Disclaimer

   EN    FR    IT 

 










Legend :    VFR   Marginal VFR   IFR   Intensive IFR   Very Intensive IFR
Visi :
Ceiling :
>= 8 km
>= 3000ft
5 to 8 km
1000 to 3000 ft
1500m to 5 km
500 to 1000 ft
800 to 1500m
200 to 500 ft
< 800m
< 200 ft
Symbols :   Thunderstorms  Fog  Heavy snow  Heavy precipitations  Wind > 20 kt
SIGMETs :     Misc.  Thunderstorms  Icing  Turbulence  Mountain Waves  Volcanic Ashes







- Airport Elevation : 876 ft
- IATA code : MBX


LJMB - Maribor

CURRENT METAR :
  • 270000Z AUTO 35001KT 7000 NCD 21/20 Q1022

EXPIRED METARs :
  • 262330Z AUTO 36002KT 7000 NCD 21/19 Q1022
  • 262300Z AUTO 00000KT 9999 NCD 22/20 Q1022
  • 262230Z AUTO 00000KT 8000 NCD 22/19 Q1022
  • 262200Z AUTO 14002KT 9999 NCD 23/20 Q1022
  • 262130Z AUTO 19003KT 9999 NCD 24/20 Q1022

TAF TAF LJMB
Valid from the 26 at 21:00 until the 27 at 21:00 UTC


262000Z 2621/2721 VRB02KT CAVOK
BECMG 2707/2709 16005KT FEW050
TEMPO 2714/2721 36015G30KT 4000 +TSRA BKN050CB OVC090
BECMG 2718/2721 03005KT
No reported NOTAMs for that airfield.



MET'MAP, your aeronautical weather chart ! - Copyright ORBIFLY December 2007 - Disclaimer

ORBIFLY MET'MAP TEAM :

Programming & Development : Alexandra Zaïnal
Concept & Development : Baudouin d'Aumeries
Co-Development & Prog : Marc-Olivier Méhu
Technical & hardware support : Manuel Goepfert

Contact : metmap@orbifly.com




SOURCES & CREDITS :

   NOAA